sensor_id;sensor_type;location;lat;lon;timestamp;temperature;humidity
17307;DHT22;8771;48.048;7.682;2023-11-21T00:00:00;11.70;80.40
17307;DHT22;8771;48.048;7.682;2023-11-21T00:05:02;11.70;80.30
17307;DHT22;8771;48.048;7.682;2023-11-21T00:10:04;11.70;80.40
17307;DHT22;8771;48.048;7.682;2023-11-21T00:15:10;11.70;80.40
17307;DHT22;8771;48.048;7.682;2023-11-21T00:20:16;11.70;80.40
17307;DHT22;8771;48.048;7.682;2023-11-21T00:25:18;11.70;80.40
17307;DHT22;8771;48.048;7.682;2023-11-21T00:30:22;11.70;80.40
17307;DHT22;8771;48.048;7.682;2023-11-21T00:35:23;11.70;80.50
17307;DHT22;8771;48.048;7.682;2023-11-21T00:40:26;11.70;80.60
17307;DHT22;8771;48.048;7.682;2023-11-21T00:45:29;11.60;80.50
17307;DHT22;8771;48.048;7.682;2023-11-21T00:50:31;11.60;80.60
17307;DHT22;8771;48.048;7.682;2023-11-21T00:55:33;11.60;80.70
17307;DHT22;8771;48.048;7.682;2023-11-21T01:00:37;11.60;80.60
17307;DHT22;8771;48.048;7.682;2023-11-21T01:05:40;11.50;80.60
17307;DHT22;8771;48.048;7.682;2023-11-21T01:10:42;11.50;80.60
17307;DHT22;8771;48.048;7.682;2023-11-21T01:15:46;11.50;80.60
17307;DHT22;8771;48.048;7.682;2023-11-21T01:20:47;11.50;80.70
17307;DHT22;8771;48.048;7.682;2023-11-21T01:25:49;11.50;80.70
17307;DHT22;8771;48.048;7.682;2023-11-21T01:30:53;11.40;80.70
17307;DHT22;8771;48.048;7.682;2023-11-21T01:35:57;11.40;80.70
17307;DHT22;8771;48.048;7.682;2023-11-21T01:40:58;11.40;80.70
17307;DHT22;8771;48.048;7.682;2023-11-21T01:46:02;11.40;80.70
17307;DHT22;8771;48.048;7.682;2023-11-21T01:51:07;11.40;80.90
17307;DHT22;8771;48.048;7.682;2023-11-21T01:56:09;11.40;80.80
17307;DHT22;8771;48.048;7.682;2023-11-21T02:01:13;11.40;80.80
17307;DHT22;8771;48.048;7.682;2023-11-21T02:06:15;11.50;80.70
17307;DHT22;8771;48.048;7.682;2023-11-21T02:11:17;11.50;80.70
17307;DHT22;8771;48.048;7.682;2023-11-21T02:16:21;11.50;80.70
17307;DHT22;8771;48.048;7.682;2023-11-21T02:21:24;11.50;81.50
17307;DHT22;8771;48.048;7.682;2023-11-21T02:26:27;11.40;80.70
17307;DHT22;8771;48.048;7.682;2023-11-21T02:31:29;11.40;80.70
17307;DHT22;8771;48.048;7.682;2023-11-21T02:36:33;11.40;80.70
17307;DHT22;8771;48.048;7.682;2023-11-21T02:41:36;11.40;80.70
17307;DHT22;8771;48.048;7.682;2023-11-21T02:46:39;11.40;80.70
17307;DHT22;8771;48.048;7.682;2023-11-21T02:51:41;11.40;80.80
17307;DHT22;8771;48.048;7.682;2023-11-21T02:56:44;11.40;80.80
17307;DHT22;8771;48.048;7.682;2023-11-21T03:01:46;11.40;80.90
17307;DHT22;8771;48.048;7.682;2023-11-21T03:06:50;11.40;80.90
17307;DHT22;8771;48.048;7.682;2023-11-21T03:11:53;11.40;80.90
17307;DHT22;8771;48.048;7.682;2023-11-21T03:16:55;11.40;80.80
17307;DHT22;8771;48.048;7.682;2023-11-21T03:21:57;11.40;80.70
17307;DHT22;8771;48.048;7.682;2023-11-21T03:27:00;11.40;80.70
17307;DHT22;8771;48.048;7.682;2023-11-21T03:32:03;11.50;80.70
17307;DHT22;8771;48.048;7.682;2023-11-21T03:37:05;11.40;80.60
17307;DHT22;8771;48.048;7.682;2023-11-21T03:42:08;11.50;80.70
17307;DHT22;8771;48.048;7.682;2023-11-21T03:47:10;11.50;80.70
17307;DHT22;8771;48.048;7.682;2023-11-21T03:52:12;11.50;80.70
17307;DHT22;8771;48.048;7.682;2023-11-21T03:57:15;11.50;80.70
17307;DHT22;8771;48.048;7.682;2023-11-21T04:02:17;11.50;81.50
17307;DHT22;8771;48.048;7.682;2023-11-21T04:07:19;11.40;80.70
17307;DHT22;8771;48.048;7.682;2023-11-21T04:12:23;11.40;80.70
17307;DHT22;8771;48.048;7.682;2023-11-21T04:17:25;11.40;80.70
17307;DHT22;8771;48.048;7.682;2023-11-21T04:22:27;11.40;80.70
17307;DHT22;8771;48.048;7.682;2023-11-21T04:27:31;11.40;80.80
17307;DHT22;8771;48.048;7.682;2023-11-21T04:32:33;11.40;80.80
17307;DHT22;8771;48.048;7.682;2023-11-21T04:37:34;11.40;80.80
17307;DHT22;8771;48.048;7.682;2023-11-21T04:42:38;11.40;80.90
17307;DHT22;8771;48.048;7.682;2023-11-21T04:47:40;11.40;80.90
17307;DHT22;8771;48.048;7.682;2023-11-21T04:52:42;11.40;80.90
17307;DHT22;8771;48.048;7.682;2023-11-21T04:57:45;11.40;80.90
17307;DHT22;8771;48.048;7.682;2023-11-21T05:02:47;11.40;80.90
17307;DHT22;8771;48.048;7.682;2023-11-21T05:07:50;11.40;81.00
17307;DHT22;8771;48.048;7.682;2023-11-21T05:12:55;11.30;80.90
17307;DHT22;8771;48.048;7.682;2023-11-21T05:17:57;11.30;81.00
17307;DHT22;8771;48.048;7.682;2023-11-21T05:23:00;11.40;81.00
17307;DHT22;8771;48.048;7.682;2023-11-21T05:28:04;11.40;81.00
17307;DHT22;8771;48.048;7.682;2023-11-21T05:33:07;11.40;80.90
17307;DHT22;8771;48.048;7.682;2023-11-21T05:38:09;11.40;80.90
17307;DHT22;8771;48.048;7.682;2023-11-21T05:43:13;11.40;80.90
17307;DHT22;8771;48.048;7.682;2023-11-21T05:48:15;11.30;80.90
17307;DHT22;8771;48.048;7.682;2023-11-21T05:53:18;11.30;81.00
17307;DHT22;8771;48.048;7.682;2023-11-21T05:58:22;11.30;81.00
17307;DHT22;8771;48.048;7.682;2023-11-21T06:03:26;11.30;81.00
17307;DHT22;8771;48.048;7.682;2023-11-21T06:08:28;11.30;81.00
17307;DHT22;8771;48.048;7.682;2023-11-21T06:13:31;11.30;81.10
17307;DHT22;8771;48.048;7.682;2023-11-21T06:18:33;11.30;81.20
17307;DHT22;8771;48.048;7.682;2023-11-21T06:23:35;11.20;81.10
17307;DHT22;8771;48.048;7.682;2023-11-21T06:28:39;11.20;81.10
17307;DHT22;8771;48.048;7.682;2023-11-21T06:33:41;11.10;81.20
17307;DHT22;8771;48.048;7.682;2023-11-21T06:38:43;11.10;81.20
17307;DHT22;8771;48.048;7.682;2023-11-21T06:43:47;11.10;81.30
17307;DHT22;8771;48.048;7.682;2023-11-21T06:48:50;11.10;81.30
17307;DHT22;8771;48.048;7.682;2023-11-21T06:53:52;11.10;81.30
17307;DHT22;8771;48.048;7.682;2023-11-21T06:58:55;11.10;81.30
17307;DHT22;8771;48.048;7.682;2023-11-21T07:03:58;11.10;81.30
17307;DHT22;8771;48.048;7.682;2023-11-21T07:08:59;11.10;81.30
17307;DHT22;8771;48.048;7.682;2023-11-21T07:14:03;11.10;81.30
17307;DHT22;8771;48.048;7.682;2023-11-21T07:19:08;11.10;81.30
17307;DHT22;8771;48.048;7.682;2023-11-21T07:24:10;11.10;81.20
17307;DHT22;8771;48.048;7.682;2023-11-21T07:29:13;11.10;81.20
17307;DHT22;8771;48.048;7.682;2023-11-21T07:34:15;11.10;81.20
17307;DHT22;8771;48.048;7.682;2023-11-21T07:39:17;11.20;81.20
17307;DHT22;8771;48.048;7.682;2023-11-21T07:44:20;11.20;81.20
17307;DHT22;8771;48.048;7.682;2023-11-21T07:49:22;11.20;81.20
17307;DHT22;8771;48.048;7.682;2023-11-21T07:54:24;11.20;81.10
17307;DHT22;8771;48.048;7.682;2023-11-21T07:59:27;11.30;81.10
17307;DHT22;8771;48.048;7.682;2023-11-21T08:04:30;11.30;81.20
17307;DHT22;8771;48.048;7.682;2023-11-21T08:09:32;11.30;81.00
17307;DHT22;8771;48.048;7.682;2023-11-21T08:14:36;11.30;81.00
17307;DHT22;8771;48.048;7.682;2023-11-21T08:19:39;11.40;81.00
17307;DHT22;8771;48.048;7.682;2023-11-21T08:24:41;11.40;81.00
17307;DHT22;8771;48.048;7.682;2023-11-21T08:29:44;11.40;81.00
17307;DHT22;8771;48.048;7.682;2023-11-21T08:34:46;11.50;81.00
17307;DHT22;8771;48.048;7.682;2023-11-21T08:39:51;11.50;80.90
17307;DHT22;8771;48.048;7.682;2023-11-21T08:44:56;11.60;80.90
17307;DHT22;8771;48.048;7.682;2023-11-21T08:49:58;11.60;80.80
17307;DHT22;8771;48.048;7.682;2023-11-21T08:55:00;11.70;80.80
17307;DHT22;8771;48.048;7.682;2023-11-21T09:00:11;11.70;80.70
17307;DHT22;8771;48.048;7.682;2023-11-21T09:05:16;11.80;80.80
17307;DHT22;8771;48.048;7.682;2023-11-21T09:10:19;11.90;80.60
17307;DHT22;8771;48.048;7.682;2023-11-21T09:15:23;12.00;80.50
17307;DHT22;8771;48.048;7.682;2023-11-21T09:20:26;12.10;80.50
17307;DHT22;8771;48.048;7.682;2023-11-21T09:25:27;12.10;80.30
17307;DHT22;8771;48.048;7.682;2023-11-21T09:30:31;12.20;80.30
17307;DHT22;8771;48.048;7.682;2023-11-21T09:35:33;12.20;80.50
17307;DHT22;8771;48.048;7.682;2023-11-21T09:40:35;12.20;80.30
17307;DHT22;8771;48.048;7.682;2023-11-21T09:45:39;12.30;80.30
17307;DHT22;8771;48.048;7.682;2023-11-21T09:50:42;12.40;80.30
17307;DHT22;8771;48.048;7.682;2023-11-21T09:55:48;12.40;80.20
17307;DHT22;8771;48.048;7.682;2023-11-21T10:00:53;12.40;80.30
17307;DHT22;8771;48.048;7.682;2023-11-21T10:05:57;12.50;80.30
17307;DHT22;8771;48.048;7.682;2023-11-21T10:11:01;12.50;80.20
17307;DHT22;8771;48.048;7.682;2023-11-21T10:16:09;12.60;80.30
17307;DHT22;8771;48.048;7.682;2023-11-21T10:21:14;12.60;80.30
17307;DHT22;8771;48.048;7.682;2023-11-21T10:26:17;12.60;80.20
17307;DHT22;8771;48.048;7.682;2023-11-21T10:31:22;12.70;80.30
17307;DHT22;8771;48.048;7.682;2023-11-21T10:36:28;12.70;80.10
17307;DHT22;8771;48.048;7.682;2023-11-21T10:41:30;12.70;80.10
17307;DHT22;8771;48.048;7.682;2023-11-21T10:46:33;12.70;80.30
17307;DHT22;8771;48.048;7.682;2023-11-21T10:51:35;12.70;80.30
17307;DHT22;8771;48.048;7.682;2023-11-21T10:56:39;12.70;80.30
17307;DHT22;8771;48.048;7.682;2023-11-21T11:01:45;12.70;80.20
17307;DHT22;8771;48.048;7.682;2023-11-21T11:06:53;12.80;80.30
17307;DHT22;8771;48.048;7.682;2023-11-21T11:11:57;12.80;80.20
17307;DHT22;8771;48.048;7.682;2023-11-21T11:17:01;12.80;80.10
17307;DHT22;8771;48.048;7.682;2023-11-21T11:22:18;12.90;80.10
17307;DHT22;8771;48.048;7.682;2023-11-21T11:27:30;12.80;80.20
17307;DHT22;8771;48.048;7.682;2023-11-21T11:32:43;12.80;80.30
17307;DHT22;8771;48.048;7.682;2023-11-21T11:37:47;12.80;80.30
17307;DHT22;8771;48.048;7.682;2023-11-21T11:42:56;12.60;81.10
17307;DHT22;8771;48.048;7.682;2023-11-21T11:48:02;12.60;80.50
17307;DHT22;8771;48.048;7.682;2023-11-21T11:53:14;12.70;80.40
17307;DHT22;8771;48.048;7.682;2023-11-21T11:58:17;12.60;80.30
17307;DHT22;8771;48.048;7.682;2023-11-21T12:03:20;12.50;81.20
17307;DHT22;8771;48.048;7.682;2023-11-21T12:08:22;12.50;80.60
17307;DHT22;8771;48.048;7.682;2023-11-21T12:13:31;12.40;80.70
17307;DHT22;8771;48.048;7.682;2023-11-21T12:18:35;12.40;80.80
17307;DHT22;8771;48.048;7.682;2023-11-21T12:23:39;12.50;80.60
17307;DHT22;8771;48.048;7.682;2023-11-21T12:28:41;12.50;80.60
17307;DHT22;8771;48.048;7.682;2023-11-21T12:33:45;12.50;80.50
17307;DHT22;8771;48.048;7.682;2023-11-21T12:38:47;12.50;80.50
17307;DHT22;8771;48.048;7.682;2023-11-21T12:43:49;12.50;80.50
17307;DHT22;8771;48.048;7.682;2023-11-21T12:48:52;12.60;80.30
17307;DHT22;8771;48.048;7.682;2023-11-21T12:53:54;12.60;80.20
17307;DHT22;8771;48.048;7.682;2023-11-21T12:58:57;12.60;80.30
17307;DHT22;8771;48.048;7.682;2023-11-21T13:04:01;12.60;80.30
17307;DHT22;8771;48.048;7.682;2023-11-21T13:09:03;12.70;80.20
17307;DHT22;8771;48.048;7.682;2023-11-21T13:14:06;12.80;80.00
17307;DHT22;8771;48.048;7.682;2023-11-21T13:19:09;12.70;80.00
17307;DHT22;8771;48.048;7.682;2023-11-21T13:24:12;12.50;80.20
17307;DHT22;8771;48.048;7.682;2023-11-21T13:29:16;12.50;80.50
17307;DHT22;8771;48.048;7.682;2023-11-21T13:34:19;12.40;80.50
17307;DHT22;8771;48.048;7.682;2023-11-21T13:39:24;12.30;80.50
17307;DHT22;8771;48.048;7.682;2023-11-21T13:44:29;12.30;80.60
17307;DHT22;8771;48.048;7.682;2023-11-21T13:49:39;12.20;80.60
17307;DHT22;8771;48.048;7.682;2023-11-21T13:54:43;12.00;80.80
17307;DHT22;8771;48.048;7.682;2023-11-21T13:59:45;11.80;81.00
17307;DHT22;8771;48.048;7.682;2023-11-21T14:04:48;11.70;81.10
17307;DHT22;8771;48.048;7.682;2023-11-21T14:09:56;11.60;81.20
17307;DHT22;8771;48.048;7.682;2023-11-21T14:14:59;11.60;81.30
17307;DHT22;8771;48.048;7.682;2023-11-21T14:20:03;11.60;81.30
17307;DHT22;8771;48.048;7.682;2023-11-21T14:25:06;11.70;81.20
17307;DHT22;8771;48.048;7.682;2023-11-21T14:30:09;11.70;81.10
17307;DHT22;8771;48.048;7.682;2023-11-21T14:35:15;11.70;81.00
17307;DHT22;8771;48.048;7.682;2023-11-21T14:40:17;11.60;81.10
17307;DHT22;8771;48.048;7.682;2023-11-21T14:45:22;11.60;81.20
17307;DHT22;8771;48.048;7.682;2023-11-21T14:50:28;11.50;81.10
17307;DHT22;8771;48.048;7.682;2023-11-21T14:55:59;11.50;81.20
17307;DHT22;8771;48.048;7.682;2023-11-21T15:01:02;11.50;81.20
17307;DHT22;8771;48.048;7.682;2023-11-21T15:06:06;11.50;81.20
17307;DHT22;8771;48.048;7.682;2023-11-21T15:11:20;11.50;81.20
17307;DHT22;8771;48.048;7.682;2023-11-21T15:16:28;11.40;81.20
17307;DHT22;8771;48.048;7.682;2023-11-21T15:21:32;11.40;81.20
17307;DHT22;8771;48.048;7.682;2023-11-21T15:26:34;11.40;81.20
17307;DHT22;8771;48.048;7.682;2023-11-21T15:31:36;11.30;81.20
17307;DHT22;8771;48.048;7.682;2023-11-21T15:36:40;11.30;81.20
17307;DHT22;8771;48.048;7.682;2023-11-21T15:41:42;11.30;81.30
17307;DHT22;8771;48.048;7.682;2023-11-21T15:46:44;11.30;81.30
17307;DHT22;8771;48.048;7.682;2023-11-21T15:51:48;11.20;81.30
17307;DHT22;8771;48.048;7.682;2023-11-21T15:56:54;11.20;81.30
17307;DHT22;8771;48.048;7.682;2023-11-21T16:01:57;11.20;81.30
17307;DHT22;8771;48.048;7.682;2023-11-21T16:07:00;11.20;81.30
17307;DHT22;8771;48.048;7.682;2023-11-21T16:12:04;11.10;81.30
17307;DHT22;8771;48.048;7.682;2023-11-21T16:17:06;11.10;81.30
17307;DHT22;8771;48.048;7.682;2023-11-21T16:22:10;11.10;81.40
17307;DHT22;8771;48.048;7.682;2023-11-21T16:27:12;11.10;81.40
17307;DHT22;8771;48.048;7.682;2023-11-21T16:32:14;11.10;81.40
17307;DHT22;8771;48.048;7.682;2023-11-21T16:37:18;11.10;81.30
17307;DHT22;8771;48.048;7.682;2023-11-21T16:42:20;11.20;81.40
17307;DHT22;8771;48.048;7.682;2023-11-21T16:47:22;11.10;81.30
17307;DHT22;8771;48.048;7.682;2023-11-21T16:52:25;11.10;81.30
17307;DHT22;8771;48.048;7.682;2023-11-21T16:57:28;11.00;81.40
17307;DHT22;8771;48.048;7.682;2023-11-21T17:02:29;11.00;81.40
17307;DHT22;8771;48.048;7.682;2023-11-21T17:07:33;10.90;81.40
17307;DHT22;8771;48.048;7.682;2023-11-21T17:12:35;10.90;81.50
17307;DHT22;8771;48.048;7.682;2023-11-21T17:17:38;10.80;81.50
17307;DHT22;8771;48.048;7.682;2023-11-21T17:22:41;10.80;81.50
17307;DHT22;8771;48.048;7.682;2023-11-21T17:27:44;10.90;81.50
17307;DHT22;8771;48.048;7.682;2023-11-21T17:32:46;10.80;81.40
17307;DHT22;8771;48.048;7.682;2023-11-21T17:37:49;10.70;81.40
17307;DHT22;8771;48.048;7.682;2023-11-21T17:42:51;10.70;81.40
17307;DHT22;8771;48.048;7.682;2023-11-21T17:47:53;10.70;81.40
17307;DHT22;8771;48.048;7.682;2023-11-21T17:52:56;10.70;81.40
17307;DHT22;8771;48.048;7.682;2023-11-21T17:58:02;10.70;81.40
17307;DHT22;8771;48.048;7.682;2023-11-21T18:03:04;10.70;81.30
17307;DHT22;8771;48.048;7.682;2023-11-21T18:08:07;10.70;81.30
17307;DHT22;8771;48.048;7.682;2023-11-21T18:13:10;10.70;81.20
17307;DHT22;8771;48.048;7.682;2023-11-21T18:18:12;10.70;81.20
17307;DHT22;8771;48.048;7.682;2023-11-21T18:23:15;10.70;81.20
17307;DHT22;8771;48.048;7.682;2023-11-21T18:28:17;10.70;81.20
17307;DHT22;8771;48.048;7.682;2023-11-21T18:33:19;10.70;81.20
17307;DHT22;8771;48.048;7.682;2023-11-21T18:38:22;10.70;81.20
17307;DHT22;8771;48.048;7.682;2023-11-21T18:43:24;10.60;81.10
17307;DHT22;8771;48.048;7.682;2023-11-21T18:48:26;10.60;81.20
17307;DHT22;8771;48.048;7.682;2023-11-21T18:53:29;10.60;81.20
17307;DHT22;8771;48.048;7.682;2023-11-21T18:58:34;10.60;81.20
17307;DHT22;8771;48.048;7.682;2023-11-21T19:03:37;10.60;81.20
17307;DHT22;8771;48.048;7.682;2023-11-21T19:08:42;10.60;81.20
17307;DHT22;8771;48.048;7.682;2023-11-21T19:13:44;10.60;81.10
17307;DHT22;8771;48.048;7.682;2023-11-21T19:18:46;10.60;81.20
17307;DHT22;8771;48.048;7.682;2023-11-21T19:23:50;10.60;81.20
17307;DHT22;8771;48.048;7.682;2023-11-21T19:28:52;10.60;81.10
17307;DHT22;8771;48.048;7.682;2023-11-21T19:33:54;10.70;81.20
17307;DHT22;8771;48.048;7.682;2023-11-21T19:38:58;10.70;81.20
17307;DHT22;8771;48.048;7.682;2023-11-21T19:43:59;10.60;81.20
17307;DHT22;8771;48.048;7.682;2023-11-21T19:49:02;10.60;81.30
17307;DHT22;8771;48.048;7.682;2023-11-21T19:54:05;10.60;81.40
17307;DHT22;8771;48.048;7.682;2023-11-21T19:59:09;10.50;81.40
17307;DHT22;8771;48.048;7.682;2023-11-21T20:04:11;10.50;81.40
17307;DHT22;8771;48.048;7.682;2023-11-21T20:09:14;10.50;81.40
17307;DHT22;8771;48.048;7.682;2023-11-21T20:14:16;10.50;81.50
17307;DHT22;8771;48.048;7.682;2023-11-21T20:19:19;10.50;81.50
17307;DHT22;8771;48.048;7.682;2023-11-21T20:24:24;10.40;81.40
17307;DHT22;8771;48.048;7.682;2023-11-21T20:29:27;10.40;81.50
17307;DHT22;8771;48.048;7.682;2023-11-21T20:34:29;10.40;81.50
17307;DHT22;8771;48.048;7.682;2023-11-21T20:39:34;10.40;81.60
17307;DHT22;8771;48.048;7.682;2023-11-21T20:44:37;10.40;81.60
17307;DHT22;8771;48.048;7.682;2023-11-21T20:49:40;10.40;81.60
17307;DHT22;8771;48.048;7.682;2023-11-21T20:54:44;10.40;81.60
17307;DHT22;8771;48.048;7.682;2023-11-21T20:59:52;10.40;81.60
17307;DHT22;8771;48.048;7.682;2023-11-21T21:05:20;10.40;81.50
17307;DHT22;8771;48.048;7.682;2023-11-21T21:10:50;10.40;81.50
17307;DHT22;8771;48.048;7.682;2023-11-21T21:16:18;10.50;81.60
17307;DHT22;8771;48.048;7.682;2023-11-21T21:21:32;10.50;81.50
17307;DHT22;8771;48.048;7.682;2023-11-21T21:26:39;10.50;81.50
17307;DHT22;8771;48.048;7.682;2023-11-21T21:32:07;10.50;81.50
17307;DHT22;8771;48.048;7.682;2023-11-21T21:43:07;10.50;81.50
17307;DHT22;8771;48.048;7.682;2023-11-21T21:48:35;10.50;81.40
17307;DHT22;8771;48.048;7.682;2023-11-21T21:54:02;10.50;81.40
17307;DHT22;8771;48.048;7.682;2023-11-21T21:59:14;10.40;81.40
17307;DHT22;8771;48.048;7.682;2023-11-21T22:10:29;10.40;81.50
17307;DHT22;8771;48.048;7.682;2023-11-21T22:15:37;10.30;81.40
17307;DHT22;8771;48.048;7.682;2023-11-21T22:21:06;10.30;81.40
17307;DHT22;8771;48.048;7.682;2023-11-21T22:43:48;10.20;81.40
17307;DHT22;8771;48.048;7.682;2023-11-21T22:49:15;10.20;81.40
17307;DHT22;8771;48.048;7.682;2023-11-21T22:54:42;10.20;81.60
17307;DHT22;8771;48.048;7.682;2023-11-21T23:05:43;10.20;81.70
17307;DHT22;8771;48.048;7.682;2023-11-21T23:11:10;10.20;81.60
17307;DHT22;8771;48.048;7.682;2023-11-21T23:16:20;10.10;81.60
17307;DHT22;8771;48.048;7.682;2023-11-21T23:21:27;10.10;81.60
17307;DHT22;8771;48.048;7.682;2023-11-21T23:26:56;10.00;81.60
17307;DHT22;8771;48.048;7.682;2023-11-21T23:32:25;10.00;81.60
17307;DHT22;8771;48.048;7.682;2023-11-21T23:37:54;10.00;81.60
17307;DHT22;8771;48.048;7.682;2023-11-21T23:43:22;10.00;81.60
17307;DHT22;8771;48.048;7.682;2023-11-21T23:48:50;10.00;81.50
17307;DHT22;8771;48.048;7.682;2023-11-21T23:53:57;10.00;81.60
17307;DHT22;8771;48.048;7.682;2023-11-21T23:59:03;10.00;81.70
